FEZ weather

Saïss Airport
Fes, Fès Province, Morocco

Public forecast

Using degrees Celsius for public forecast. Weather courtesy of forecast.io.

Current aviation weather report (METAR) for Saïss Airport

Retrieved 2019/12/10 21:30 UTC (0 seconds ago):

GMFF 102130Z 21006KT 4200 BR SCT020 08/07 Q1027 BECMG 3000

Aviation forecast (TAF) for Saïss Airport

Retrieved 2019/12/10 18:18 UTC (3 hours ago):

TAF TAF GMFF 101700Z 1018/1124 29008KT CAVOK PROB30 TEMPO 1022/1108 VRB04KT 3000 BR BKN010 BECMG 1110/1112 22005KT 8000 SCT033 BECMG 15/18 32011KT CAVOK